CheckWX is a tool to help pilots better visualize weather data.  It is not intended as a substitute for an official pre-flight weather briefing.

16:36:39 UTC

SKBG TAF
Palonegro Airport
Bucaramanga, Colombia
TAF SKBG 261100Z 2612/2712 VRB02KT 9999 SCT010 SCT070 TEMPO 2612/2614 8000 VCFG DZ BECMG 2614/2616 32008KT SCT020 SCT090 TX28/2619Z TN18/2711Z

Mar-26@
12:00 UTC

Mar-26 @ 12:00 UTC

Mar-26@
14:00 UTC

Mar-26 @ 14:00 UTC

TAF SKBG 261100Z 2612/2712 VRB02KT 9999 SCT010 SCT070

Expired

Wind
  • Variable at 2 KTS
Cloud Levels
  • Scattered at 1,000' AGL
  • Scattered at 7,000' AGL

Mar-26@
12:00 UTC

Mar-26 @ 12:00 UTC

Mar-26@
14:00 UTC

Mar-26 @ 14:00 UTC

TEMPO 2612/2614 8000 VCFG DZ

Expired

Conditions
Area Fog, Drizzle

Mar-26@
14:00 UTC

Mar-26 @ 14:00 UTC

Mar-27@
12:00 UTC

Mar-27 @ 12:00 UTC

BECMG 2614/2616 32008KT SCT020 SCT090 TX28/2619Z TN18/2711Z

Becoming

Becoming Conditions expected by Tue, Mar 26, 2019 @ 16:00 UTC

Wind
  • 320° at 8 KTS
Cloud Levels
  • Scattered at 2,000' AGL
  • Scattered at 9,000' AGL